This is the latest recevied weather packets stored in our database for station/object DB0MOD. If no packets are shown the sender has not sent any weather packets the latest 10 day(s).
| Time | Temp. | Humidity | Pressure | Rain* | Wind** | Luminosity | Snow |
|---|---|---|---|---|---|---|---|
| 1778175237 | 12.78° C | 12% | 1013.5 hPa | 0 mm | - | - | - |
| 1778174937 | 12.78° C | 11% | 1013.4 hPa | 0 mm | - | - | - |
| 1778174637 | 12.78° C | 10% | 1013.5 hPa | 0 mm | - | - | - |
| 1778174337 | 12.22° C | 11% | 1013.5 hPa | 0 mm | - | - | - |
| 1778173737 | 12.22° C | 12% | 1013.6 hPa | 0 mm | - | - | - |
| 1778173437 | 12.22° C | 14% | 1013.6 hPa | 0 mm | - | - | - |
| 1778173137 | 12.78° C | 19% | 1013.6 hPa | 0 mm | - | - | - |
| 1778172837 | 12.78° C | 21% | 1013.5 hPa | 0 mm | - | - | - |
| 1778172537 | 13.33° C | 25% | 1013.7 hPa | 0 mm | - | - | - |
| 1778172237 | 13.33° C | 28% | 1013.6 hPa | 0 mm | - | - | - |
| 1778171937 | 13.89° C | 31% | 1013.7 hPa | 0 mm | - | - | - |
| 1778171637 | 14.44° C | 36% | 1013.7 hPa | 0 mm | - | - | - |
| 1778171337 | 15° C | 39% | 1013.4 hPa | 0 mm | - | - | - |
| 1778171037 | 15.56° C | 42% | 1013.5 hPa | 0 mm | - | - | - |
| 1778170437 | 18.33° C | 46% | 1013.5 hPa | 0 mm | - | - | - |
| 1778170137 | 20.56° C | 45% | 1013.5 hPa | 0 mm | - | - | - |
| 1778169837 | 20.56° C | 45% | 1013.4 hPa | 0 mm | - | - | - |
| 1778169537 | 18.33° C | 45% | 1013.5 hPa | 0 mm | - | - | - |
| 1778169237 | 19.44° C | 46% | 1013.4 hPa | 0 mm | - | - | - |
| 1778168937 | 20.56° C | 45% | 1013.3 hPa | 0 mm | - | - | - |
| 1778168637 | 19.44° C | 44% | 1013.4 hPa | 0 mm | - | - | - |
| 1778168337 | 19.44° C | 43% | 1013.2 hPa | 0 mm | - | - | - |
| 1778168037 | 18.33° C | 38% | 1013.3 hPa | 0 mm | - | - | - |
| 1778167737 | 17.22° C | 34% | 1013.3 hPa | 0 mm | - | - | - |
| 1778167437 | 16.11° C | 29% | 1013.3 hPa | 0 mm | - | - | - |
* Rain latest hour (hover to see other rain measurements)
** Current wind speed in m/s (hover to see current wind gust speed)